createdAt,value
2022-12-10T00:00:07.045Z,26.31
2022-12-10T00:02:05.111Z,26.13
2022-12-10T00:04:03.169Z,26.19
2022-12-10T00:06:01.503Z,26.25
2022-12-10T00:07:59.817Z,26.13
2022-12-10T00:09:58.149Z,26.13
2022-12-10T00:11:56.116Z,26.13
2022-12-10T00:13:54.408Z,26.19
2022-12-10T00:15:52.757Z,26.19
2022-12-10T00:17:51.135Z,25.56
2022-12-10T00:19:49.272Z,25.44
2022-12-10T00:21:47.754Z,25.63
2022-12-10T00:23:46.057Z,25.56
2022-12-10T00:25:44.299Z,25.50
2022-12-10T00:27:42.344Z,25.44
2022-12-10T00:29:40.304Z,25.56
2022-12-10T00:31:38.555Z,25.50
2022-12-10T00:33:36.696Z,25.44
2022-12-10T00:35:35.006Z,25.38
2022-12-10T00:37:33.113Z,25.44
2022-12-10T00:39:31.311Z,25.38
2022-12-10T00:41:29.690Z,25.31
2022-12-10T00:43:27.868Z,25.63
2022-12-10T00:45:26.054Z,25.94
2022-12-10T00:47:24.482Z,26.06
2022-12-10T00:49:24.241Z,26.19
2022-12-10T00:51:22.575Z,25.94
2022-12-10T00:53:20.944Z,26.06
2022-12-10T00:55:19.234Z,26.00
2022-12-10T00:57:17.512Z,26.06
2022-12-10T00:59:15.696Z,26.13
2022-12-10T01:01:13.973Z,26.06
2022-12-10T01:03:12.193Z,26.06
2022-12-10T01:05:10.425Z,26.13
2022-12-10T01:07:11.405Z,26.00
2022-12-10T01:09:09.676Z,25.94
2022-12-10T01:11:08.066Z,25.63
2022-12-10T01:13:06.078Z,25.56
2022-12-10T01:15:04.283Z,25.50
2022-12-10T01:17:03.587Z,25.69
2022-12-10T01:19:01.752Z,25.50
2022-12-10T01:21:00.096Z,25.44
2022-12-10T01:22:58.430Z,25.50
2022-12-10T01:24:56.605Z,25.50
2022-12-10T01:26:56.060Z,25.44
2022-12-10T01:28:54.392Z,25.38
2022-12-10T01:30:52.642Z,25.50
2022-12-10T01:32:50.864Z,25.69
2022-12-10T01:34:48.987Z,26.00
2022-12-10T01:36:47.211Z,26.19
2022-12-10T01:38:45.541Z,26.25
2022-12-10T01:40:43.728Z,26.25
2022-12-10T01:42:41.946Z,26.25
2022-12-10T01:44:39.204Z,26.31
2022-12-10T01:46:37.437Z,26.19
2022-12-10T01:48:35.493Z,26.13
2022-12-10T01:50:33.861Z,26.13
2022-12-10T01:52:32.184Z,26.13
2022-12-10T01:54:30.498Z,26.19
2022-12-10T01:56:28.435Z,26.25
2022-12-10T01:58:26.431Z,26.25
2022-12-10T02:00:24.416Z,26.31
2022-12-10T02:02:22.408Z,26.31
2022-12-10T02:04:20.380Z,26.25
2022-12-10T02:06:18.538Z,26.25
2022-12-10T02:08:16.559Z,26.06
2022-12-10T02:10:14.517Z,25.75
2022-12-10T02:12:12.483Z,25.81
2022-12-10T02:14:10.463Z,25.81
2022-12-10T02:16:08.450Z,25.69
2022-12-10T02:18:06.463Z,25.63
2022-12-10T02:20:04.597Z,25.56
2022-12-10T02:22:02.804Z,25.56
2022-12-10T02:24:01.248Z,25.69
2022-12-10T02:25:59.225Z,25.75
2022-12-10T02:27:57.280Z,25.63
2022-12-10T02:29:55.227Z,25.50
2022-12-10T02:31:53.169Z,25.44
2022-12-10T02:33:51.112Z,25.56
2022-12-10T02:35:49.118Z,25.56
2022-12-10T02:37:47.377Z,26.13
2022-12-10T02:39:45.425Z,26.06
2022-12-10T02:41:43.424Z,26.19
2022-12-10T02:43:41.388Z,26.31
2022-12-10T02:45:39.430Z,26.25
2022-12-10T02:47:37.409Z,26.13
2022-12-10T02:49:35.612Z,26.06
2022-12-10T02:51:33.632Z,26.13
2022-12-10T02:53:31.825Z,26.19
2022-12-10T02:55:29.975Z,26.19
2022-12-10T02:57:28.273Z,26.25
2022-12-10T02:59:26.597Z,26.31
2022-12-10T03:01:25.013Z,26.13
2022-12-10T03:03:24.030Z,26.19
2022-12-10T03:05:22.390Z,26.13
2022-12-10T03:07:20.614Z,25.94
2022-12-10T03:09:18.549Z,25.63
2022-12-10T03:11:16.511Z,25.63
2022-12-10T03:13:14.472Z,25.56
2022-12-10T03:15:12.484Z,25.50
2022-12-10T03:17:10.415Z,25.38
2022-12-10T03:19:08.457Z,25.56
2022-12-10T03:21:06.688Z,25.44
2022-12-10T03:23:04.860Z,25.38
2022-12-10T03:25:02.982Z,25.50
2022-12-10T03:27:01.151Z,25.44
2022-12-10T03:28:59.458Z,26.00
2022-12-10T03:30:57.805Z,26.06
2022-12-10T03:32:55.971Z,26.19
2022-12-10T03:34:54.208Z,26.25
2022-12-10T03:36:52.428Z,26.00
2022-12-10T03:38:50.482Z,26.06
2022-12-10T03:40:48.641Z,26.00
2022-12-10T03:42:46.851Z,26.06
2022-12-10T03:44:45.008Z,27.19
2022-12-10T03:46:42.966Z,26.00
2022-12-10T03:48:40.957Z,24.81
2022-12-10T03:50:39.122Z,23.56
2022-12-10T03:52:37.446Z,24.88
2022-12-10T03:54:35.696Z,26.06
2022-12-10T03:56:33.928Z,26.81
2022-12-10T03:58:32.165Z,27.31
2022-12-10T04:00:30.344Z,27.50
2022-12-10T04:02:28.737Z,27.69
2022-12-10T04:04:27.156Z,27.81
2022-12-10T04:06:25.124Z,27.88
2022-12-10T04:08:24.247Z,28.25
2022-12-10T04:10:22.391Z,28.19
2022-12-10T04:12:20.335Z,28.00
2022-12-10T04:14:35.901Z,27.94
2022-12-10T04:16:32.999Z,27.94
2022-12-10T04:18:31.206Z,27.75
2022-12-10T04:20:47.045Z,27.63
2022-12-10T04:23:02.605Z,27.50
2022-12-10T04:25:18.272Z,27.44
2022-12-10T04:27:16.548Z,27.44
2022-12-10T04:29:14.576Z,27.13
2022-12-10T04:31:12.928Z,27.25
2022-12-10T04:33:11.130Z,26.94
2022-12-10T04:35:09.333Z,26.94
2022-12-10T04:37:07.679Z,26.56
2022-12-10T04:39:05.971Z,26.50
2022-12-10T04:41:16.484Z,26.50
2022-12-10T04:43:14.579Z,26.50
2022-12-10T04:45:12.924Z,26.25
2022-12-10T04:47:11.241Z,26.06
2022-12-10T04:49:09.544Z,25.75
2022-12-10T04:51:07.706Z,25.69
2022-12-10T04:53:06.014Z,25.75
2022-12-10T04:55:04.347Z,25.69
2022-12-10T04:57:02.721Z,25.56
2022-12-10T04:59:00.832Z,25.50
2022-12-10T05:00:59.366Z,25.56
2022-12-10T05:02:57.652Z,25.63
2022-12-10T05:04:55.988Z,25.50
2022-12-10T05:06:54.198Z,25.50
2022-12-10T05:08:52.555Z,25.38
2022-12-10T05:10:50.846Z,25.56
2022-12-10T05:12:48.851Z,25.50
2022-12-10T05:14:47.100Z,25.56
2022-12-10T05:16:45.392Z,25.44
2022-12-10T05:18:43.536Z,25.38
2022-12-10T05:20:41.611Z,25.50
2022-12-10T05:22:57.350Z,25.38
2022-12-10T05:24:55.549Z,25.25
2022-12-10T05:26:53.649Z,25.31
2022-12-10T05:28:51.957Z,25.31
2022-12-10T05:30:50.153Z,25.50
2022-12-10T05:32:48.489Z,25.88
2022-12-10T05:34:46.606Z,26.00
2022-12-10T05:36:44.717Z,26.06
2022-12-10T05:38:43.026Z,26.13
2022-12-10T05:40:41.130Z,26.25
2022-12-10T05:42:39.370Z,26.31
2022-12-10T05:44:37.549Z,26.19
2022-12-10T05:46:35.860Z,26.06
2022-12-10T05:48:34.077Z,26.00
2022-12-10T05:50:32.261Z,26.06
2022-12-10T05:52:30.254Z,26.13
2022-12-10T05:54:28.250Z,26.19
2022-12-10T05:56:26.485Z,26.19
2022-12-10T05:58:24.702Z,25.94
2022-12-10T06:00:24.660Z,26.00
2022-12-10T06:02:22.712Z,25.50
2022-12-10T06:04:20.990Z,25.56
2022-12-10T06:06:19.313Z,25.50
2022-12-10T06:08:17.644Z,25.44
2022-12-10T06:10:15.958Z,25.44
2022-12-10T06:12:14.290Z,25.50
2022-12-10T06:14:12.253Z,25.38
2022-12-10T06:16:10.385Z,25.38
2022-12-10T06:18:08.609Z,25.44
2022-12-10T06:20:06.892Z,25.31
2022-12-10T06:22:05.292Z,25.88
2022-12-10T06:24:03.574Z,26.00
2022-12-10T06:26:01.915Z,26.06
2022-12-10T06:27:59.962Z,26.06
2022-12-10T06:29:58.121Z,26.19
2022-12-10T06:31:56.339Z,26.25
2022-12-10T06:33:55.015Z,26.31
2022-12-10T06:35:53.193Z,26.13
2022-12-10T06:37:51.439Z,26.19
2022-12-10T06:39:49.610Z,26.19
2022-12-10T06:41:48.007Z,26.25
2022-12-10T06:43:46.223Z,26.31
2022-12-10T06:45:44.523Z,26.31
2022-12-10T06:47:43.254Z,26.25
2022-12-10T06:49:41.527Z,26.25
2022-12-10T06:51:40.475Z,26.19
2022-12-10T06:53:38.711Z,26.19
2022-12-10T06:55:37.046Z,25.75
2022-12-10T06:57:35.208Z,25.63
2022-12-10T06:59:33.143Z,25.56
2022-12-10T07:01:31.120Z,28.06
2022-12-10T07:03:29.433Z,28.06
2022-12-10T07:05:27.779Z,28.06
2022-12-10T07:07:25.995Z,29.19
2022-12-10T07:09:25.183Z,29.44
2022-12-10T07:11:23.412Z,29.63
2022-12-10T07:13:25.557Z,29.69
2022-12-10T07:15:28.657Z,29.75
2022-12-10T07:17:26.928Z,29.81
2022-12-10T07:19:25.285Z,29.81
2022-12-10T07:21:23.569Z,29.88
2022-12-10T07:23:21.961Z,29.94
2022-12-10T07:25:20.136Z,29.94
2022-12-10T07:27:18.239Z,30.00
2022-12-10T07:29:16.169Z,30.06
2022-12-10T07:31:14.327Z,30.13
2022-12-10T07:33:12.669Z,30.19
2022-12-10T07:35:11.039Z,30.25
2022-12-10T07:37:09.164Z,30.31
2022-12-10T07:39:07.271Z,30.38
2022-12-10T07:41:05.584Z,30.44
2022-12-10T07:43:03.808Z,30.50
2022-12-10T07:45:02.205Z,30.56
2022-12-10T07:47:00.439Z,30.56
2022-12-10T07:48:58.810Z,30.63
2022-12-10T07:50:58.748Z,30.63
2022-12-10T07:52:57.302Z,30.69
2022-12-10T07:54:55.447Z,30.75
2022-12-10T07:56:53.785Z,30.75
2022-12-10T07:58:51.748Z,30.81
2022-12-10T08:00:50.119Z,30.81
2022-12-10T08:02:48.445Z,30.81
2022-12-10T08:04:46.839Z,30.88
2022-12-10T08:06:45.096Z,30.88
2022-12-10T08:08:43.288Z,30.88
2022-12-10T08:10:41.440Z,30.94
2022-12-10T08:12:39.771Z,30.94
2022-12-10T08:14:37.985Z,27.63
2022-12-10T08:16:36.404Z,27.25
2022-12-10T08:18:34.641Z,25.06
2022-12-10T08:20:32.866Z,23.94
2022-12-10T08:22:31.151Z,24.06
2022-12-10T08:24:29.367Z,26.38
2022-12-10T08:26:27.709Z,27.06
2022-12-10T08:28:25.822Z,27.69
2022-12-10T08:30:24.171Z,28.13
2022-12-10T08:32:22.379Z,28.38
2022-12-10T08:34:20.698Z,28.69
2022-12-10T08:36:19.014Z,29.00
2022-12-10T08:38:17.219Z,29.38
2022-12-10T08:40:15.527Z,29.81
2022-12-10T08:42:13.502Z,30.13
2022-12-10T08:44:11.789Z,30.44
2022-12-10T08:46:09.840Z,30.81
2022-12-10T08:48:08.192Z,31.13
2022-12-10T08:50:06.692Z,31.31
2022-12-10T08:52:04.824Z,31.56
2022-12-10T08:54:03.138Z,31.75
2022-12-10T08:56:01.171Z,31.94
2022-12-10T08:57:59.432Z,32.06
2022-12-10T08:59:57.609Z,32.19
2022-12-10T09:01:56.715Z,32.31
2022-12-10T09:03:55.945Z,32.38
2022-12-10T09:05:54.184Z,32.44
2022-12-10T09:07:52.528Z,32.50
2022-12-10T09:09:50.884Z,32.50
2022-12-10T09:11:49.057Z,32.50
2022-12-10T09:13:47.363Z,32.56
2022-12-10T09:15:45.622Z,32.50
2022-12-10T09:17:43.924Z,32.50
2022-12-10T09:19:42.111Z,32.44
2022-12-10T09:21:40.460Z,32.44
2022-12-10T09:23:38.701Z,32.38
2022-12-10T09:25:37.080Z,32.31
2022-12-10T09:27:35.273Z,32.19
2022-12-10T09:29:33.484Z,32.13
2022-12-10T09:31:31.862Z,32.06
2022-12-10T09:33:30.266Z,32.00
2022-12-10T09:35:28.637Z,31.94
2022-12-10T09:37:26.876Z,31.88
2022-12-10T09:39:25.393Z,31.81
2022-12-10T09:41:23.544Z,31.75
2022-12-10T09:43:22.420Z,31.63
2022-12-10T09:45:20.755Z,31.56
2022-12-10T09:47:18.739Z,31.56
2022-12-10T09:49:16.963Z,31.50
2022-12-10T09:51:15.261Z,31.44
2022-12-10T09:53:13.444Z,31.38
2022-12-10T09:55:11.726Z,31.31
2022-12-10T09:57:09.679Z,31.25
2022-12-10T09:59:07.959Z,31.19
2022-12-10T10:01:06.337Z,31.13
2022-12-10T10:03:04.404Z,31.13
2022-12-10T10:05:02.413Z,31.06
2022-12-10T10:07:00.769Z,31.06
2022-12-10T10:08:58.841Z,31.00
2022-12-10T10:10:57.203Z,31.00
2022-12-10T10:12:55.142Z,31.00
2022-12-10T10:14:53.090Z,30.94
2022-12-10T10:16:51.367Z,30.94
2022-12-10T10:18:49.622Z,30.94
2022-12-10T10:20:47.799Z,30.88
2022-12-10T10:22:45.894Z,30.88
2022-12-10T10:24:46.208Z,30.88
2022-12-10T10:26:44.493Z,30.88
2022-12-10T10:28:42.666Z,30.88
2022-12-10T10:30:40.959Z,30.88
2022-12-10T10:32:39.079Z,30.88
2022-12-10T10:34:37.322Z,30.88
2022-12-10T10:36:35.323Z,30.94
2022-12-10T10:38:33.580Z,30.94
2022-12-10T10:40:31.559Z,30.94
2022-12-10T10:42:29.845Z,30.94
2022-12-10T10:44:28.139Z,30.94
2022-12-10T10:46:26.547Z,30.94
2022-12-10T10:48:24.500Z,30.94
2022-12-10T10:50:22.753Z,30.94
2022-12-10T10:52:20.821Z,30.94
2022-12-10T10:54:18.774Z,30.94
2022-12-10T10:56:18.962Z,30.88
2022-12-10T10:58:17.472Z,27.81
2022-12-10T11:00:16.048Z,27.56
2022-12-10T11:02:14.724Z,25.44
2022-12-10T11:04:12.906Z,23.94
2022-12-10T11:06:10.889Z,26.94
2022-12-10T11:08:09.162Z,27.13
2022-12-10T11:10:07.784Z,27.94
2022-12-10T11:12:06.243Z,28.50
2022-12-10T11:14:04.124Z,28.81
2022-12-10T11:16:02.049Z,29.06
2022-12-10T11:18:00.094Z,29.25
2022-12-10T11:19:58.022Z,29.69
2022-12-10T11:21:56.153Z,30.25
2022-12-10T11:23:54.643Z,30.56
2022-12-10T11:25:52.634Z,30.81
2022-12-10T11:27:50.567Z,31.13
2022-12-10T11:29:48.822Z,31.44
2022-12-10T11:31:46.766Z,31.63
2022-12-10T11:33:44.692Z,31.94
2022-12-10T11:35:42.811Z,32.06
2022-12-10T11:37:40.708Z,32.19
2022-12-10T11:39:38.644Z,32.38
2022-12-10T11:41:36.637Z,32.50
2022-12-10T11:43:34.608Z,32.56
2022-12-10T11:45:32.539Z,32.63
2022-12-10T11:47:30.469Z,32.69
2022-12-10T11:49:28.479Z,32.69
2022-12-10T11:51:28.125Z,32.69
2022-12-10T11:53:26.432Z,32.69
2022-12-10T11:55:24.578Z,32.69
2022-12-10T11:57:22.892Z,32.63
2022-12-10T11:59:20.851Z,32.63
2022-12-10T12:01:19.082Z,32.56
2022-12-10T12:03:17.163Z,32.50
2022-12-10T12:05:15.410Z,32.44
2022-12-10T12:07:13.360Z,32.38
2022-12-10T12:09:11.313Z,32.31
2022-12-10T12:11:09.806Z,32.25
2022-12-10T12:13:07.979Z,32.19
2022-12-10T12:15:05.893Z,32.06
2022-12-10T12:17:04.229Z,32.00
2022-12-10T12:19:02.466Z,31.94
2022-12-10T12:21:00.737Z,31.81
2022-12-10T12:22:58.962Z,31.75
2022-12-10T12:24:57.153Z,31.69
2022-12-10T12:26:55.400Z,31.63
2022-12-10T12:28:53.476Z,31.56
2022-12-10T12:30:51.762Z,31.50
2022-12-10T12:32:49.865Z,31.44
2022-12-10T12:34:48.055Z,31.38
2022-12-10T12:36:46.141Z,31.31
2022-12-10T12:38:44.321Z,31.25
2022-12-10T12:40:42.957Z,31.19
2022-12-10T12:42:40.890Z,31.13
2022-12-10T12:44:39.051Z,31.13
2022-12-10T12:46:37.084Z,31.06
2022-12-10T12:48:35.267Z,31.06
2022-12-10T12:50:33.223Z,31.06
2022-12-10T12:52:33.401Z,31.00
2022-12-10T12:54:31.345Z,31.00
2022-12-10T12:56:30.666Z,31.00
2022-12-10T12:58:28.958Z,30.94
2022-12-10T13:38:23.358Z,27.00
2022-12-10T13:40:21.350Z,25.38
2022-12-10T13:42:36.951Z,24.06
2022-12-10T13:44:34.107Z,27.56
2022-12-10T13:46:32.095Z,28.31
2022-12-10T13:48:30.151Z,28.88
2022-12-10T13:50:28.078Z,29.25
2022-12-10T13:52:26.072Z,29.50
2022-12-10T13:54:24.023Z,29.75
2022-12-10T13:56:22.050Z,29.94
2022-12-10T14:30:41.213Z,29.31
2022-12-10T14:32:39.210Z,29.63
2022-12-10T14:34:37.182Z,29.75
2022-12-10T14:36:35.122Z,29.69
2022-12-10T14:38:33.074Z,29.63
2022-12-10T14:40:31.194Z,29.63
2022-12-10T14:42:29.349Z,29.69
2022-12-10T14:44:27.368Z,29.75
2022-12-10T14:46:25.347Z,29.81
2022-12-10T14:48:23.399Z,29.81
2022-12-10T14:50:21.340Z,29.88
2022-12-10T14:52:19.800Z,29.94
2022-12-10T14:54:17.751Z,30.06
2022-12-10T14:56:15.957Z,30.06
2022-12-10T14:58:14.171Z,30.13
2022-12-10T15:00:12.565Z,30.19
2022-12-10T15:02:10.946Z,30.31
2022-12-10T15:04:09.250Z,30.38
2022-12-10T15:06:07.558Z,30.44
2022-12-10T15:08:05.986Z,30.50
2022-12-10T15:10:04.214Z,30.56
2022-12-10T15:12:02.229Z,30.63
2022-12-10T15:14:00.281Z,30.69
2022-12-10T15:15:58.297Z,30.75
2022-12-10T15:17:56.660Z,30.81
2022-12-10T15:19:54.581Z,30.88
2022-12-10T15:21:53.281Z,30.94
2022-12-10T15:23:51.232Z,30.94
2022-12-10T15:25:49.609Z,31.00
2022-12-10T15:27:47.941Z,31.06
2022-12-10T15:29:45.954Z,31.13
2022-12-10T15:31:44.172Z,31.13
2022-12-10T15:33:42.477Z,31.19
2022-12-10T15:35:40.407Z,31.25
2022-12-10T15:37:38.417Z,31.25
2022-12-10T15:39:37.030Z,31.25
2022-12-10T15:41:37.615Z,31.31
2022-12-10T15:43:35.984Z,31.31
2022-12-10T15:45:34.140Z,31.38
2022-12-10T15:47:33.760Z,31.38
2022-12-10T15:49:31.672Z,31.31
2022-12-10T15:51:29.671Z,31.38
2022-12-10T15:53:33.669Z,31.38
2022-12-10T15:55:33.117Z,31.38
2022-12-10T15:57:31.748Z,31.44
2022-12-10T15:59:29.743Z,31.38
2022-12-10T16:01:27.793Z,31.38
2022-12-10T16:03:25.902Z,31.38
2022-12-10T16:05:24.293Z,31.38
2022-12-10T16:07:22.250Z,31.38
2022-12-10T16:09:20.549Z,31.31
2022-12-10T16:11:18.533Z,31.31
2022-12-10T16:13:16.551Z,31.31
2022-12-10T16:15:14.512Z,31.25
2022-12-10T16:17:12.458Z,31.25
2022-12-10T16:19:10.430Z,31.25
2022-12-10T16:21:08.856Z,31.25
2022-12-10T16:23:07.248Z,31.19
2022-12-10T16:25:05.218Z,31.19
2022-12-10T16:27:03.213Z,31.13
2022-12-10T16:29:01.136Z,31.13
2022-12-10T16:30:59.755Z,31.13
2022-12-10T16:32:57.635Z,31.13
2022-12-10T16:34:55.539Z,31.06
2022-12-10T16:36:53.503Z,31.06
2022-12-10T16:38:51.516Z,31.06
2022-12-10T16:40:49.847Z,31.00
2022-12-10T16:42:48.703Z,31.00
2022-12-10T16:44:47.058Z,30.94
2022-12-10T16:46:45.174Z,30.94
2022-12-10T16:48:43.102Z,30.94
2022-12-10T16:50:41.195Z,30.94
2022-12-10T16:52:39.196Z,30.94
2022-12-10T16:54:37.147Z,30.88
2022-12-10T16:56:35.050Z,30.81
2022-12-10T16:58:33.208Z,30.81
2022-12-10T17:00:31.203Z,30.81
2022-12-10T17:02:29.220Z,30.31
2022-12-10T17:04:27.172Z,27.31
2022-12-10T17:06:25.180Z,26.31
2022-12-10T17:08:23.230Z,25.06
2022-12-10T17:10:41.783Z,23.13
2022-12-10T17:12:38.745Z,26.94
2022-12-10T17:14:36.691Z,27.56
2022-12-10T17:16:34.860Z,28.25
2022-12-10T17:18:32.807Z,28.63
2022-12-10T17:20:30.844Z,28.94
2022-12-10T17:22:28.739Z,29.13
2022-12-10T17:24:26.723Z,29.38
2022-12-10T17:26:24.790Z,29.88
2022-12-10T17:28:22.717Z,30.38
2022-12-10T17:30:20.666Z,30.75
2022-12-10T17:32:18.567Z,30.94
2022-12-10T17:34:17.786Z,31.19
2022-12-10T17:36:15.705Z,31.44
2022-12-10T17:38:13.609Z,31.75
2022-12-10T17:40:11.817Z,31.94
2022-12-10T17:42:10.072Z,32.13
2022-12-10T17:44:08.038Z,32.25
2022-12-10T17:46:06.085Z,32.31
2022-12-10T17:48:05.503Z,32.38
2022-12-10T17:50:05.817Z,32.38
2022-12-10T17:52:03.928Z,32.31
2022-12-10T17:54:01.899Z,32.25
2022-12-10T17:55:59.991Z,32.25
2022-12-10T17:57:59.348Z,32.13
2022-12-10T17:59:57.585Z,32.06
2022-12-10T18:01:55.741Z,31.94
2022-12-10T18:03:53.733Z,31.81
2022-12-10T18:05:51.875Z,31.63
2022-12-10T18:07:49.898Z,31.63
2022-12-10T18:09:47.796Z,31.44
2022-12-10T18:11:46.263Z,31.38
2022-12-10T18:13:47.838Z,31.13
2022-12-10T18:15:46.088Z,31.06
2022-12-10T18:17:44.968Z,31.00
2022-12-10T18:19:44.407Z,30.94
2022-12-10T18:21:44.042Z,30.81
2022-12-10T18:23:42.017Z,30.75
2022-12-10T18:25:39.928Z,30.69
2022-12-10T18:27:38.074Z,30.63
2022-12-10T18:29:36.022Z,30.38
2022-12-10T18:31:34.056Z,30.38
2022-12-10T18:33:35.099Z,30.31
2022-12-10T18:35:33.650Z,30.25
2022-12-10T18:37:31.636Z,30.19
2022-12-10T18:39:32.479Z,30.25
2022-12-10T18:41:30.857Z,30.31
2022-12-10T18:43:28.827Z,30.25
2022-12-10T18:45:26.756Z,30.25
2022-12-10T18:47:24.708Z,30.19
2022-12-10T18:49:22.725Z,30.13
2022-12-10T18:51:20.808Z,30.06
2022-12-10T18:53:18.785Z,30.19
2022-12-10T18:55:17.238Z,30.13
2022-12-10T18:59:33.318Z,30.13
2022-12-10T19:01:31.523Z,30.06
2022-12-10T19:03:29.542Z,30.13
2022-12-10T19:05:27.530Z,30.13
2022-12-10T19:07:25.472Z,30.06
2022-12-10T19:09:23.557Z,30.06
2022-12-10T19:11:22.577Z,30.06
2022-12-10T19:13:21.426Z,30.06
2022-12-10T19:15:19.357Z,30.06
2022-12-10T19:17:17.338Z,30.06
2022-12-10T19:19:15.556Z,30.00
2022-12-10T19:21:13.939Z,30.06
2022-12-10T19:23:11.864Z,30.06
2022-12-10T19:25:10.399Z,30.06
2022-12-10T19:27:08.554Z,30.06
2022-12-10T19:29:06.556Z,30.06
2022-12-10T19:31:04.583Z,30.13
2022-12-10T19:33:02.564Z,30.13
2022-12-10T19:35:00.819Z,30.13
2022-12-10T19:36:58.905Z,30.13
2022-12-10T19:38:57.144Z,30.13
2022-12-10T19:40:55.534Z,30.13
2022-12-10T19:42:53.492Z,30.19
2022-12-10T19:44:51.610Z,30.19
2022-12-10T19:46:49.763Z,30.25
2022-12-10T19:48:47.805Z,30.63
2022-12-10T19:50:45.897Z,30.75
2022-12-10T19:52:43.804Z,30.81
2022-12-10T19:54:42.227Z,30.50
2022-12-10T19:56:40.364Z,30.44
2022-12-10T19:58:38.348Z,30.44
2022-12-10T20:00:36.522Z,30.44
2022-12-10T20:02:34.611Z,30.44
2022-12-10T20:04:32.960Z,30.44
2022-12-10T20:06:32.072Z,30.44
2022-12-10T20:08:30.025Z,30.44
2022-12-10T20:10:27.994Z,30.44
2022-12-10T20:12:25.922Z,30.44
2022-12-10T20:14:23.843Z,30.38
2022-12-10T20:16:22.017Z,30.38
2022-12-10T20:18:20.167Z,30.44
2022-12-10T20:20:18.174Z,30.44
2022-12-10T20:22:16.146Z,30.44
2022-12-10T20:24:14.340Z,30.38
2022-12-10T20:26:12.293Z,30.44
2022-12-10T20:28:11.087Z,30.44
2022-12-10T20:30:09.351Z,30.44
2022-12-10T20:32:07.710Z,30.44
2022-12-10T20:34:09.496Z,30.44
2022-12-10T20:36:08.737Z,30.44
2022-12-10T20:38:07.178Z,30.44
2022-12-10T20:40:30.943Z,28.38
2022-12-10T20:42:23.241Z,27.63
2022-12-10T20:44:21.462Z,25.69
2022-12-10T20:46:20.432Z,24.75
2022-12-10T20:48:18.413Z,23.06
2022-12-10T20:50:16.531Z,26.94
2022-12-10T20:52:14.855Z,27.56
2022-12-10T20:54:12.774Z,28.25
2022-12-10T20:56:10.685Z,28.63
2022-12-10T20:58:08.685Z,28.94
2022-12-10T21:00:10.498Z,29.13
2022-12-10T21:02:14.535Z,29.50
2022-12-10T21:04:13.072Z,29.94
2022-12-10T21:06:11.034Z,30.19
2022-12-10T21:08:09.044Z,30.50
2022-12-10T21:10:06.970Z,30.94
2022-12-10T21:12:05.101Z,31.25
2022-12-10T21:14:06.839Z,31.44
2022-12-10T21:16:08.200Z,31.69
2022-12-10T21:18:06.387Z,31.88
2022-12-10T21:20:04.598Z,32.06
2022-12-10T21:22:02.719Z,32.25
2022-12-10T21:24:00.667Z,32.31
2022-12-10T21:25:58.620Z,32.38
2022-12-10T21:27:56.533Z,32.44
2022-12-10T21:29:54.718Z,32.44
2022-12-10T21:31:52.673Z,32.44
2022-12-10T21:33:50.607Z,32.38
2022-12-10T21:35:49.286Z,32.31
2022-12-10T21:37:47.180Z,32.25
2022-12-10T21:39:45.350Z,32.13
2022-12-10T21:42:00.973Z,32.13
2022-12-10T21:43:59.112Z,32.06
2022-12-10T21:45:57.359Z,31.88
2022-12-10T21:47:55.240Z,31.69
2022-12-10T21:49:53.321Z,31.63
2022-12-10T21:51:51.199Z,31.56
2022-12-10T21:53:49.220Z,31.38
2022-12-10T21:55:47.223Z,31.38
2022-12-10T21:57:45.114Z,31.31
2022-12-10T21:59:43.222Z,31.06
2022-12-10T22:01:41.246Z,31.06
2022-12-10T22:03:39.273Z,31.00
2022-12-10T22:05:37.232Z,30.88
2022-12-10T22:07:35.370Z,30.88
2022-12-10T22:09:33.278Z,30.81
2022-12-10T22:11:31.232Z,30.75
2022-12-10T22:13:29.356Z,30.63
2022-12-10T22:15:28.263Z,30.63
2022-12-10T22:17:26.189Z,30.56
2022-12-10T22:19:24.184Z,30.56
2022-12-10T22:21:24.194Z,30.50
2022-12-10T22:23:22.084Z,30.50
2022-12-10T22:25:19.970Z,30.50
2022-12-10T22:27:17.903Z,30.44
2022-12-10T22:29:15.828Z,30.44
2022-12-10T22:31:13.814Z,30.44
2022-12-10T22:33:11.762Z,30.38
2022-12-10T22:35:10.058Z,30.38
2022-12-10T22:37:08.084Z,30.38
2022-12-10T22:39:06.036Z,30.38
2022-12-10T22:41:04.251Z,30.44
2022-12-10T22:43:26.402Z,30.44
2022-12-10T22:45:20.114Z,30.31
2022-12-10T22:47:18.023Z,30.31
2022-12-10T22:49:16.478Z,30.31
2022-12-10T22:51:14.438Z,30.31
2022-12-10T22:53:12.750Z,30.38
2022-12-10T22:55:10.928Z,30.38
2022-12-10T22:57:09.132Z,30.31
2022-12-10T22:59:07.435Z,30.38
2022-12-10T23:01:05.485Z,29.31
2022-12-10T23:03:03.439Z,29.06
2022-12-10T23:05:01.382Z,28.88
2022-12-10T23:06:59.285Z,28.56
2022-12-10T23:08:57.232Z,28.19
2022-12-10T23:10:55.192Z,27.94
2022-12-10T23:13:07.144Z,27.63
2022-12-10T23:15:05.410Z,27.56
2022-12-10T23:17:03.366Z,27.25
2022-12-10T23:19:01.321Z,27.25
2022-12-10T23:20:59.781Z,26.94
2022-12-10T23:22:57.670Z,26.94
2022-12-10T23:24:55.803Z,26.56
2022-12-10T23:26:53.786Z,26.44
2022-12-10T23:28:51.784Z,26.31
2022-12-10T23:30:49.790Z,26.25
2022-12-10T23:32:47.730Z,26.19
2022-12-10T23:34:45.626Z,26.13
2022-12-10T23:36:43.587Z,26.00
2022-12-10T23:38:41.584Z,25.94
2022-12-10T23:40:39.573Z,25.88
2022-12-10T23:42:37.553Z,25.81
2022-12-10T23:44:35.806Z,25.75
2022-12-10T23:46:33.897Z,25.69
2022-12-10T23:48:31.783Z,25.69
2022-12-10T23:50:33.180Z,25.63
2022-12-10T23:52:31.075Z,25.56
2022-12-10T23:54:29.000Z,25.88
2022-12-10T23:56:26.984Z,26.00
2022-12-10T23:58:24.902Z,26.06
